Laramie, WY

12:22 PM MST on December 25, 2014 (GMT -0700)
RAWS SAWMILL PARK WY US | Change Station
CLOSE
Current Station
Personal Weather Station
Location: Laramie, WY
Elevation: 9078 ft
Nearby Weather Stations
Active Advisory: Winter Storm Warning

Elev 9078 ft 41.07 °N, 106.13 °W | Updated 30 minutes ago

Overcast
Overcast
24 °F
Feels Like 17 °F
N
6
Wind Variable Wind from SW
Gusts 11.0 mph

Today
High -- | Low -- °F
--% Chance of Precip.
Yesterday
High -- | Low -- °F
Precip. -- in
7:27 AM 4:41 PM
Waxing Crescent, 18% visible
Pressure 29.46 in
Visibility 10.0 miles
Clouds Mostly Cloudy 2200 ft
Overcast 3200 ft
Windchill 17 °F
Dew Point 18 °F
Humidity 77%
Rainfall 0.00 in
Snow Depth Not available.
UV 1 out of 12
Pollen .10 out of 12
Air Quality Not available.
Flu Activity Not available.
METAR K33V 251915Z AUTO 17005KT 10SM BKN022 OVC032 M01/M07 A2946 RMK AO2

More Conditions Fewer Conditions

Pressure 29.46 in
Visibility 10.0 miles
Clouds Mostly Cloudy 2200 ft
Overcast 3200 ft
Windchill 17 °F
Dew Point 18 °F
Humidity 77%
Rainfall 0.00 in
Snow Depth Not available.
UV 1 out of 12
Pollen .10 out of 12
Air Quality Not available.
Flu Activity Not available.
METAR K33V 251915Z AUTO 17005KT 10SM BKN022 OVC032 M01/M07 A2946 RMK AO2

More Conditions Fewer Conditions

10-Day Weather Forecast

Almanac

Astronomy

Dec. 25, 2014 Rise Set
Actual Time
Civil Twilight
Nautical Twilight
Astronomical Twilight
Moon
Length of Visible Light
Length of Day
Tomorrow will be .
, % of the Moon is Illuminated

Today's Extremes

State Highs State Lows

Community

WunderPhotos

Upload Photos

1,780,368 photos uploaded!

WunderBlogs® & News

Nearby

Air Quality

  Air Quality AQ Index Pollutant
Not available.

Snow Depth

Station Depth Elevation

Earthquake Activity

City Distance Mag. Time & Date
Minimum magnitude displayed is 2.5.

Coastal Water Temperatures

Place Temperature

Nearby Weather Stations